Time;durP1;ratioP1;P1;durP2;ratioP2;P2;SDS_P1;SDS_P2;PMS_P1;PMS_P2;Temp;Humidity;BMP_temperature;BMP_pressure;BME280_temperature;BME280_humidity;BME280_pressure;Samples;Min_cycle;Max_cycle;Signal;HPM_P1;HPM_P2
2023/03/10 00:01:24;;;;;;;0.00;0.00;;;9.20;99.90;;;;;;4993273;28;20018;-75
2023/03/10 00:03:59;;;;;;;0.00;0.00;;;9.10;99.90;;;;;;4992396;28;20034;-76
2023/03/10 00:06:28;;;;;;;0.00;0.00;;;9.00;99.90;;;;;;4992190;28;20029;-76
2023/03/10 00:08:55;;;;;;;0.00;0.00;;;9.10;99.90;;;;;;4995363;28;20057;-76
2023/03/10 00:11:33;;;;;;;0.00;0.00;;;9.00;99.90;;;;;;4978743;28;20483;-75
2023/03/10 00:13:59;;;;;;;0.00;0.00;;;8.90;99.90;;;;;;4998916;28;20029;-76
2023/03/10 00:16:28;;;;;;;0.00;0.00;;;8.80;99.90;;;;;;4996306;28;20684;-75
2023/03/10 00:19:10;;;;;;;0.00;0.00;;;8.80;99.90;;;;;;4999065;28;20026;-75
2023/03/10 00:21:40;;;;;;;0.00;0.00;;;8.70;99.90;;;;;;4975876;28;20029;-76
2023/03/10 00:24:07;;;;;;;0.00;0.00;;;8.60;99.90;;;;;;4975015;28;20099;-76
2023/03/10 00:26:37;;;;;;;0.00;0.00;;;8.50;99.90;;;;;;4996882;28;20021;-76
2023/03/10 00:29:04;;;;;;;0.00;0.00;;;8.30;99.90;;;;;;4998553;28;20018;-76
2023/03/10 00:31:33;;;;;;;0.00;0.00;;;8.30;99.90;;;;;;4970495;28;20022;-76
2023/03/10 00:33:59;;;;;;;0.00;0.00;;;8.20;99.90;;;;;;4997153;28;20109;-76
2023/03/10 00:36:27;;;;;;;0.00;0.00;;;8.10;99.90;;;;;;4987731;28;20544;-76
2023/03/10 00:38:55;;;;;;;0.00;0.00;;;8.00;99.90;;;;;;4997046;28;20623;-76
2023/03/10 00:41:24;;;;;;;0.00;0.00;;;8.00;99.90;;;;;;4977035;28;20026;-75
2023/03/10 00:43:53;;;;;;;0.00;0.00;;;8.00;99.90;;;;;;4990304;28;20092;-76
2023/03/10 00:46:20;;;;;;;0.00;0.00;;;8.00;99.90;;;;;;4976493;28;20521;-76
2023/03/10 00:48:47;;;;;;;0.00;0.00;;;8.00;99.90;;;;;;4989622;28;20483;-76
2023/03/10 00:51:13;;;;;;;0.00;0.00;;;8.10;99.90;;;;;;4975217;28;20104;-75
2023/03/10 00:53:40;;;;;;;0.00;0.00;;;8.20;99.90;;;;;;4987359;28;20720;-76
2023/03/10 00:56:09;;;;;;;;;;;8.20;99.90;;;;;;4988381;28;20049;-75
2023/03/10 00:58:35;;;;;;;0.00;0.00;;;8.20;99.90;;;;;;4970852;28;19953;-75
2023/03/10 01:01:09;;;;;;;0.00;0.00;;;8.10;99.90;;;;;;4978157;28;20510;-76
2023/03/10 01:03:42;;;;;;;0.00;0.00;;;8.00;99.90;;;;;;4966019;28;20045;-75
2023/03/10 01:06:09;;;;;;;0.00;0.00;;;7.90;99.90;;;;;;4976796;28;20030;-76
2023/03/10 01:08:35;;;;;;;0.00;0.00;;;7.90;99.90;;;;;;4988107;28;20405;-75
2023/03/10 01:11:03;;;;;;;0.00;0.00;;;7.80;99.90;;;;;;4979041;28;20041;-76
2023/03/10 01:13:28;;;;;;;0.00;0.00;;;7.80;99.90;;;;;;4988549;28;20132;-76
2023/03/10 01:15:54;;;;;;;0.00;0.00;;;7.70;99.90;;;;;;4971343;28;20149;-75
2023/03/10 01:18:21;;;;;;;0.00;0.00;;;7.70;99.90;;;;;;4975929;28;20072;-76
2023/03/10 01:20:50;;;;;;;0.00;0.00;;;7.70;99.90;;;;;;4978219;28;20052;-75
2023/03/10 01:23:23;;;;;;;0.00;0.00;;;7.60;99.90;;;;;;4965764;28;20807;-75
2023/03/10 01:25:54;;;;;;;0.00;0.00;;;7.60;99.90;;;;;;4985140;28;20026;-76
2023/03/10 01:28:24;;;;;;;0.00;0.00;;;7.70;99.90;;;;;;4992875;28;20097;-75
2023/03/10 01:31:01;;;;;;;0.00;0.00;;;7.70;99.90;;;;;;4989823;28;20037;-76
2023/03/10 01:33:28;;;;;;;0.00;0.00;;;7.70;99.90;;;;;;4990938;28;20025;-76
2023/03/10 01:35:56;;;;;;;;;;;7.70;99.90;;;;;;4978637;28;20034;-75
2023/03/10 01:38:22;;;;;;;0.00;0.00;;;7.70;99.90;;;;;;4970513;28;19922;-75
2023/03/10 01:40:49;;;;;;;0.00;0.00;;;7.70;99.90;;;;;;4993350;28;20041;-76
2023/03/10 01:43:41;;;;;;;0.00;0.00;;;7.80;99.90;;;;;;4981032;28;20029;-75
2023/03/10 01:46:30;;;;;;;0.00;0.00;;;7.80;99.90;;;;;;4974482;28;20045;-76
2023/03/10 01:49:06;;;;;;;0.00;0.00;;;7.80;99.90;;;;;;4992580;28;20536;-75
2023/03/10 01:51:42;;;;;;;0.00;0.00;;;7.80;99.90;;;;;;4973479;28;20033;-76
2023/03/10 01:54:13;;;;;;;0.00;0.00;;;7.80;99.90;;;;;;4985148;28;20037;-76
2023/03/10 01:56:39;;;;;;;0.00;0.00;;;7.80;99.90;;;;;;4994505;28;20029;-76
2023/03/10 01:59:06;;;;;;;0.00;0.00;;;7.70;99.90;;;;;;4982086;28;20026;-75
2023/03/10 02:01:35;;;;;;;0.00;0.00;;;7.70;99.90;;;;;;4969028;28;20092;-75
2023/03/10 02:04:39;;;;;;;0.00;0.00;;;7.70;99.90;;;;;;4970347;28;20628;-76
2023/03/10 02:07:07;;;;;;;0.00;0.00;;;7.60;99.90;;;;;;4957914;28;20026;-75
2023/03/10 02:09:39;;;;;;;0.00;0.00;;;7.60;99.90;;;;;;4984595;28;20068;-75
2023/03/10 02:12:07;;;;;;;0.00;0.00;;;7.60;99.90;;;;;;4982550;28;20017;-75
2023/03/10 02:14:34;;;;;;;0.00;0.00;;;7.60;99.90;;;;;;4994661;28;20033;-76
2023/03/10 02:17:01;;;;;;;0.00;0.00;;;7.60;99.90;;;;;;4986037;28;20085;-75
2023/03/10 02:19:46;;;;;;;;;;;7.50;99.90;;;;;;4967791;28;20049;-75
2023/03/10 02:22:14;;;;;;;0.00;0.00;;;7.50;99.90;;;;;;4974120;28;19924;-75
2023/03/10 02:24:52;;;;;;;0.00;0.00;;;7.50;99.90;;;;;;4990902;28;20084;-75
2023/03/10 02:27:44;;;;;;;0.00;0.00;;;7.40;99.90;;;;;;4973348;28;20034;-76
2023/03/10 02:30:13;;;;;;;0.00;0.00;;;7.40;99.90;;;;;;4969118;28;20021;-76
2023/03/10 02:32:48;;;;;;;0.00;0.00;;;7.30;99.90;;;;;;4990190;28;20132;-75
2023/03/10 02:35:14;;;;;;;0.00;0.00;;;7.30;99.90;;;;;;4971533;28;20014;-75
2023/03/10 02:37:40;;;;;;;0.00;0.00;;;7.20;99.90;;;;;;4989537;28;20026;-75
2023/03/10 02:40:32;;;;;;;0.00;0.00;;;7.10;99.90;;;;;;4983169;28;20040;-75
2023/03/10 02:43:26;;;;;;;0.00;0.00;;;7.10;99.90;;;;;;4992938;28;20184;-76
2023/03/10 02:45:56;;;;;;;0.00;0.00;;;7.10;99.90;;;;;;4984423;28;20515;-76
2023/03/10 02:48:31;;;;;;;0.00;0.00;;;7.00;99.90;;;;;;4968895;28;20042;-75
2023/03/10 02:50:59;;;;;;;0.00;0.00;;;7.00;99.90;;;;;;4972217;28;20022;-75
2023/03/10 02:53:28;;;;;;;0.00;0.00;;;7.00;99.90;;;;;;4984873;28;20045;-75
2023/03/10 02:55:57;;;;;;;0.00;0.00;;;7.00;99.90;;;;;;4973777;28;20407;-75
2023/03/10 02:58:30;;;;;;;0.00;0.00;;;6.90;99.90;;;;;;4968820;28;20022;-75
2023/03/10 03:00:57;;;;;;;0.00;0.00;;;6.90;99.90;;;;;;4978544;28;20703;-75
2023/03/10 03:03:25;;;;;;;;;;;6.80;99.90;;;;;;4967790;28;20021;-76
2023/03/10 03:05:51;;;;;;;0.00;0.00;;;6.70;99.90;;;;;;5000715;28;20658;-76
2023/03/10 03:08:18;;;;;;;0.00;0.00;;;6.70;99.90;;;;;;4987001;28;20023;-76
2023/03/10 03:10:45;;;;;;;;;;;6.70;99.90;;;;;;4977205;28;20040;-76
2023/03/10 03:13:13;;;;;;;0.73;0.52;;;6.60;99.90;;;;;;4974399;28;20603;-76
2023/03/10 03:15:42;;;;;;;0.00;0.00;;;6.60;99.90;;;;;;4978228;28;20034;-76
2023/03/10 03:18:08;;;;;;;0.00;0.00;;;6.60;99.90;;;;;;4998826;28;20033;-76
2023/03/10 03:20:35;;;;;;;0.00;0.00;;;6.60;99.90;;;;;;4978153;28;20022;-76
2023/03/10 03:23:06;;;;;;;0.00;0.00;;;6.60;99.90;;;;;;4980514;28;20037;-75
2023/03/10 03:25:36;;;;;;;0.00;0.00;;;6.50;99.90;;;;;;4995044;28;20037;-75
2023/03/10 03:28:04;;;;;;;0.00;0.00;;;6.40;99.90;;;;;;4969135;28;20025;-76
2023/03/10 03:30:30;;;;;;;0.00;0.00;;;6.40;99.90;;;;;;4974123;28;20050;-76
2023/03/10 03:32:56;;;;;;;0.15;0.05;;;6.40;99.90;;;;;;4988815;28;20483;-75
2023/03/10 03:35:31;;;;;;;0.00;0.00;;;6.40;99.90;;;;;;4977481;28;20423;-76
2023/03/10 03:38:04;;;;;;;0.00;0.00;;;6.30;99.90;;;;;;4982241;28;20026;-75
2023/03/10 03:40:33;;;;;;;0.00;0.00;;;6.30;99.90;;;;;;4991695;28;20030;-76
2023/03/10 03:43:03;;;;;;;0.00;0.00;;;6.30;99.90;;;;;;4980785;28;20044;-75
2023/03/10 03:45:31;;;;;;;0.00;0.00;;;6.20;99.90;;;;;;4989653;28;20018;-75
2023/03/10 03:47:57;;;;;;;0.00;0.00;;;6.20;99.90;;;;;;4973422;28;20048;-76
2023/03/10 03:50:27;;;;;;;0.00;0.00;;;6.20;99.90;;;;;;4974343;28;20072;-76
2023/03/10 03:52:54;;;;;;;0.00;0.00;;;6.10;99.90;;;;;;4993711;28;20022;-76
2023/03/10 03:55:21;;;;;;;0.00;0.00;;;6.10;99.90;;;;;;4971157;28;20121;-76
2023/03/10 03:57:50;;;;;;;;;;;6.10;99.90;;;;;;4975498;28;20026;-76
2023/03/10 04:00:21;;;;;;;0.00;0.00;;;6.10;99.90;;;;;;4970863;28;20662;-76
2023/03/10 04:02:48;;;;;;;0.00;0.00;;;6.00;99.90;;;;;;4972584;28;20033;-76
2023/03/10 04:05:20;;;;;;;0.80;0.80;;;6.00;99.90;;;;;;4990052;28;20022;-76
2023/03/10 04:07:47;;;;;;;0.00;0.00;;;6.10;99.90;;;;;;4982481;28;20030;-76
2023/03/10 04:10:15;;;;;;;0.00;0.00;;;6.10;99.90;;;;;;5000122;28;20045;-75
2023/03/10 04:12:41;;;;;;;0.00;0.00;;;6.10;99.90;;;;;;4990324;28;20030;-76
2023/03/10 04:15:08;;;;;;;0.00;0.00;;;6.20;99.90;;;;;;4991741;28;20052;-76
2023/03/10 04:17:34;;;;;;;0.00;0.00;;;6.10;99.90;;;;;;4982453;28;20118;-76
2023/03/10 04:20:06;;;;;;;0.00;0.00;;;6.10;99.90;;;;;;4976120;28;20030;-76
2023/03/10 04:22:32;;;;;;;0.00;0.00;;;6.00;99.90;;;;;;4978387;28;20019;-76
2023/03/10 04:24:58;;;;;;;0.00;0.00;;;6.00;99.90;;;;;;4977848;28;20025;-76
2023/03/10 04:27:24;;;;;;;0.00;0.00;;;6.00;99.90;;;;;;4994280;28;20024;-75
2023/03/10 04:29:53;;;;;;;0.00;0.00;;;5.90;99.90;;;;;;4970674;28;20026;-76
2023/03/10 04:32:24;;;;;;;0.00;0.00;;;6.00;99.90;;;;;;4982731;28;20030;-75
2023/03/10 04:35:02;;;;;;;0.00;0.00;;;6.00;99.90;;;;;;4969194;28;20372;-76
2023/03/10 04:37:27;;;;;;;;;;;6.00;99.90;;;;;;4994470;28;20017;-75
2023/03/10 04:39:56;;;;;;;0.00;0.00;;;6.00;99.90;;;;;;4990479;28;19913;-76
2023/03/10 04:42:40;;;;;;;0.00;0.00;;;6.10;99.90;;;;;;4977460;28;20023;-76
2023/03/10 04:45:08;;;;;;;0.00;0.00;;;6.20;99.90;;;;;;4971792;28;20104;-76
2023/03/10 04:47:36;;;;;;;0.00;0.00;;;6.20;99.90;;;;;;4998566;28;20101;-76
2023/03/10 04:50:04;;;;;;;0.00;0.00;;;6.20;99.90;;;;;;4976534;28;20021;-75
2023/03/10 04:52:32;;;;;;;0.00;0.00;;;6.20;99.90;;;;;;4995556;28;21036;-75
2023/03/10 04:55:00;;;;;;;0.00;0.00;;;6.20;99.90;;;;;;4972764;28;20034;-75
2023/03/10 04:57:28;;;;;;;0.20;0.20;;;6.10;99.90;;;;;;4980238;28;20018;-76
2023/03/10 04:59:54;;;;;;;0.00;0.00;;;6.10;99.90;;;;;;4977637;28;20018;-75
2023/03/10 05:02:20;;;;;;;;;;;6.00;99.90;;;;;;4977152;28;20025;-75
2023/03/10 05:04:55;;;;;;;0.00;0.00;;;6.00;99.90;;;;;;4994772;28;19913;-76
2023/03/10 05:07:21;;;;;;;0.00;0.00;;;5.90;99.90;;;;;;4966621;28;20376;-75
2023/03/10 05:09:48;;;;;;;0.00;0.00;;;5.90;99.90;;;;;;4973847;28;20037;-75
2023/03/10 05:12:16;;;;;;;;;;;5.90;99.90;;;;;;4986874;28;20081;-75
2023/03/10 05:14:48;;;;;;;0.00;0.00;;;5.90;99.90;;;;;;4990334;28;20359;-76
2023/03/10 05:17:15;;;;;;;0.00;0.00;;;5.80;99.90;;;;;;4972976;28;20807;-76
2023/03/10 05:19:40;;;;;;;;;;;5.90;99.90;;;;;;4961318;28;20038;-75
2023/03/10 05:22:11;;;;;;;0.32;0.20;;;5.90;99.90;;;;;;4982713;28;19949;-75
2023/03/10 05:24:39;;;;;;;0.00;0.00;;;6.00;99.90;;;;;;4972947;28;20022;-76
2023/03/10 05:27:14;;;;;;;0.00;0.00;;;6.10;99.90;;;;;;4974090;28;20044;-74
2023/03/10 05:29:40;;;;;;;0.00;0.00;;;6.30;99.90;;;;;;4968155;28;20022;-75
2023/03/10 05:32:06;;;;;;;0.93;0.63;;;6.60;99.90;;;;;;4989135;28;20663;-75
2023/03/10 05:34:31;;;;;;;0.00;0.00;;;7.10;99.90;;;;;;4969462;28;20030;-75
2023/03/10 05:36:58;;;;;;;0.10;0.10;;;7.60;99.90;;;;;;4968518;28;20045;-75
2023/03/10 05:39:24;;;;;;;0.00;0.00;;;8.40;99.90;;;;;;4970804;28;20360;-75
2023/03/10 05:41:51;;;;;;;0.00;0.00;;;9.10;99.90;;;;;;4972944;28;20030;-76
2023/03/10 05:44:18;;;;;;;0.00;0.00;;;9.90;99.90;;;;;;4987209;28;20022;-75
2023/03/10 05:46:47;;;;;;;;;;;10.70;99.90;;;;;;4969092;28;20599;-75
2023/03/10 05:49:13;;;;;;;0.00;0.00;;;11.60;99.90;;;;;;4965920;28;19910;-74
2023/03/10 05:51:42;;;;;;;0.00;0.00;;;12.00;99.90;;;;;;4972181;28;20029;-75
2023/03/10 05:54:10;;;;;;;0.05;0.05;;;12.30;99.60;;;;;;4980192;28;20030;-76
2023/03/10 05:56:37;;;;;;;0.00;0.00;;;12.70;98.40;;;;;;4986768;28;20475;-76
2023/03/10 05:59:05;;;;;;;0.00;0.00;;;13.30;97.30;;;;;;4967050;28;20030;-76
2023/03/10 06:01:35;;;;;;;0.00;0.00;;;13.70;95.20;;;;;;4966968;28;20030;-77
2023/03/10 06:04:05;;;;;;;0.00;0.00;;;13.80;93.70;;;;;;4973428;28;20058;-78
2023/03/10 06:06:37;;;;;;;0.00;0.00;;;14.10;93.80;;;;;;4965101;28;20025;-75
2023/03/10 06:09:09;;;;;;;0.00;0.00;;;14.90;91.80;;;;;;4970652;28;20149;-75
2023/03/10 06:11:37;;;;;;;0.00;0.00;;;15.30;88.40;;;;;;4990909;28;20026;-75
2023/03/10 06:14:05;;;;;;;0.00;0.00;;;15.60;85.80;;;;;;4972677;28;20391;-75
2023/03/10 06:16:34;;;;;;;0.00;0.00;;;16.30;80.40;;;;;;4992394;28;20035;-75
2023/03/10 06:19:01;;;;;;;0.00;0.00;;;16.80;76.00;;;;;;4968388;28;20200;-76
2023/03/10 06:21:28;;;;;;;0.00;0.00;;;16.10;75.70;;;;;;4967325;28;20018;-75
2023/03/10 06:23:54;;;;;;;0.00;0.00;;;16.20;76.60;;;;;;4968826;28;20023;-73
2023/03/10 06:26:23;;;;;;;0.00;0.00;;;16.60;74.10;;;;;;4970358;28;20650;-73
2023/03/10 06:28:50;;;;;;;0.00;0.00;;;17.10;71.00;;;;;;4987720;28;20787;-75
2023/03/10 06:31:20;;;;;;;0.00;0.00;;;16.20;72.20;;;;;;4991053;28;20021;-74
2023/03/10 06:33:47;;;;;;;0.00;0.00;;;16.10;73.00;;;;;;4983565;28;20529;-75
2023/03/10 06:36:14;;;;;;;0.00;0.00;;;16.20;74.90;;;;;;4991133;28;20052;-74
2023/03/10 06:38:40;;;;;;;0.10;0.10;;;16.30;72.00;;;;;;4995061;28;20038;-77
2023/03/10 06:41:17;;;;;;;0.00;0.00;;;16.80;72.30;;;;;;4971529;28;20031;-78
2023/03/10 06:43:45;;;;;;;0.00;0.00;;;17.60;69.80;;;;;;5000999;28;20511;-77
2023/03/10 06:46:14;;;;;;;0.00;0.00;;;17.60;69.20;;;;;;4987467;28;20022;-77
2023/03/10 06:48:42;;;;;;;0.08;0.03;;;17.10;69.10;;;;;;4994730;28;20666;-77
2023/03/10 06:51:25;;;;;;;0.45;0.20;;;17.20;68.50;;;;;;4985992;28;20092;-75
2023/03/10 06:53:56;;;;;;;0.00;0.00;;;17.50;67.30;;;;;;4969373;28;20052;-77
2023/03/10 06:56:23;;;;;;;0.10;0.10;;;17.40;68.80;;;;;;4967488;28;20053;-78
2023/03/10 06:58:58;;;;;;;0.00;0.00;;;17.70;67.40;;;;;;4987351;28;20387;-77
2023/03/10 07:01:27;;;;;;;0.00;0.00;;;16.80;69.10;;;;;;4990161;28;20053;-77
2023/03/10 07:03:54;;;;;;;0.05;0.05;;;17.00;69.60;;;;;;4968597;28;20018;-75
2023/03/10 07:06:24;;;;;;;0.00;0.00;;;18.00;67.20;;;;;;4991361;28;20479;-76
2023/03/10 07:08:51;;;;;;;0.00;0.00;;;19.40;64.10;;;;;;4976918;28;20033;-76
2023/03/10 07:11:17;;;;;;;0.08;0.03;;;20.20;61.20;;;;;;4974552;28;20022;-76
2023/03/10 07:13:48;;;;;;;0.00;0.00;;;21.30;59.00;;;;;;4966389;28;20475;-78
2023/03/10 07:16:19;;;;;;;0.00;0.00;;;22.20;55.80;;;;;;4968604;28;20033;-77
2023/03/10 07:18:47;;;;;;;0.00;0.00;;;23.10;52.90;;;;;;4981133;28;20030;-78
2023/03/10 07:21:17;;;;;;;0.00;0.00;;;23.60;51.90;;;;;;4975751;28;20081;-72
2023/03/10 07:23:43;;;;;;;0.00;0.00;;;23.70;51.20;;;;;;4983863;28;20750;-72
2023/03/10 07:26:09;;;;;;;0.00;0.00;;;23.00;49.70;;;;;;4980392;28;20018;-72
2023/03/10 07:28:36;;;;;;;0.25;0.25;;;22.00;51.60;;;;;;4985738;28;20562;-72
2023/03/10 07:31:04;;;;;;;0.00;0.00;;;22.30;51.70;;;;;;4983444;28;20092;-72
2023/03/10 07:33:30;;;;;;;0.10;0.10;;;22.70;50.40;;;;;;4966826;28;20027;-72
2023/03/10 07:35:57;;;;;;;0.00;0.00;;;21.80;51.50;;;;;;4982181;28;20048;-77
2023/03/10 07:38:24;;;;;;;0.00;0.00;;;21.10;52.20;;;;;;4954645;28;20027;-77
2023/03/10 07:40:50;;;;;;;0.00;0.00;;;21.10;53.90;;;;;;4966588;28;20041;-77
2023/03/10 07:43:19;;;;;;;0.00;0.00;;;22.40;51.30;;;;;;4967728;28;20448;-75
2023/03/10 07:45:45;;;;;;;0.00;0.00;;;23.10;50.70;;;;;;4974638;28;20380;-76
2023/03/10 07:48:13;;;;;;;0.00;0.00;;;24.80;48.00;;;;;;4978789;28;20590;-75
2023/03/10 07:50:55;;;;;;;0.00;0.00;;;25.10;47.10;;;;;;4969614;28;20064;-76
2023/03/10 07:53:21;;;;;;;0.00;0.00;;;24.10;47.80;;;;;;4969162;28;20025;-74
2023/03/10 07:55:47;;;;;;;0.10;0.10;;;23.60;49.20;;;;;;4987825;28;20117;-76
2023/03/10 07:58:20;;;;;;;;;;;24.70;47.50;;;;;;4988194;28;20856;-76
2023/03/10 08:00:56;;;;;;;0.00;0.00;;;24.00;46.90;;;;;;4970414;28;19917;-77
2023/03/10 08:03:23;;;;;;;0.00;0.00;;;23.60;47.60;;;;;;4975217;28;20057;-76
2023/03/10 08:05:58;;;;;;;0.55;0.10;;;23.20;48.00;;;;;;4988282;28;20052;-76
2023/03/10 08:08:29;;;;;;;0.00;0.00;;;23.00;48.80;;;;;;4978433;28;20149;-74
2023/03/10 08:11:08;;;;;;;0.00;0.00;;;24.40;47.00;;;;;;4968284;28;20026;-76
2023/03/10 08:13:35;;;;;;;0.00;0.00;;;24.40;47.20;;;;;;4986544;28;20025;-74
2023/03/10 08:16:02;;;;;;;0.00;0.00;;;24.30;47.10;;;;;;4990799;28;20026;-76
2023/03/10 08:18:31;;;;;;;0.00;0.00;;;25.50;45.90;;;;;;4986633;28;20028;-76
2023/03/10 08:20:58;;;;;;;0.00;0.00;;;26.80;44.60;;;;;;4987860;28;20439;-77
2023/03/10 08:23:30;;;;;;;0.00;0.00;;;27.30;43.90;;;;;;4985799;28;20018;-76
2023/03/10 08:25:59;;;;;;;0.00;0.00;;;28.10;42.90;;;;;;4991321;28;20022;-76
2023/03/10 08:28:34;;;;;;;0.00;0.00;;;28.00;43.10;;;;;;4983844;28;20022;-76
2023/03/10 08:31:12;;;;;;;0.00;0.00;;;26.90;43.40;;;;;;4984531;28;20022;-76
2023/03/10 08:33:44;;;;;;;0.00;0.00;;;27.70;43.20;;;;;;4966284;28;20033;-74
2023/03/10 08:36:11;;;;;;;0.00;0.00;;;28.40;42.20;;;;;;4985620;28;20093;-76
2023/03/10 08:38:38;;;;;;;1.00;0.30;;;30.20;41.30;;;;;;4962036;28;20026;-77
2023/03/10 08:41:15;;;;;;;0.20;0.20;;;30.60;39.50;;;;;;4971021;28;20036;-76
2023/03/10 08:43:47;;;;;;;0.00;0.00;;;30.50;39.60;;;;;;4985982;28;20014;-77
2023/03/10 08:46:13;;;;;;;0.00;0.00;;;30.30;40.70;;;;;;4983262;28;20006;-76
2023/03/10 08:48:39;;;;;;;0.00;0.00;;;29.00;39.30;;;;;;4985319;28;20030;-77
2023/03/10 08:51:09;;;;;;;0.00;0.00;;;30.90;39.80;;;;;;4968657;28;20057;-77
2023/03/10 08:53:37;;;;;;;0.17;0.10;;;31.70;39.00;;;;;;4972798;28;20056;-77
2023/03/10 08:56:04;;;;;;;0.00;0.00;;;32.70;37.90;;;;;;4982708;28;20080;-78
2023/03/10 08:58:30;;;;;;;0.00;0.00;;;33.00;37.50;;;;;;4985535;28;20029;-77
2023/03/10 09:00:56;;;;;;;0.00;0.00;;;33.10;36.90;;;;;;4975215;28;20140;-76
2023/03/10 09:03:25;;;;;;;0.00;0.00;;;32.10;37.40;;;;;;4973835;28;20684;-76
2023/03/10 09:05:54;;;;;;;0.15;0.15;;;30.00;39.20;;;;;;4969129;28;20060;-76
2023/03/10 09:08:20;;;;;;;0.40;0.10;;;30.80;39.30;;;;;;4961673;28;20022;-76
2023/03/10 09:10:47;;;;;;;0.00;0.00;;;28.70;38.70;;;;;;4987850;28;20030;-76
2023/03/10 09:13:13;;;;;;;0.00;0.00;;;27.90;39.90;;;;;;4964952;28;20026;-76
2023/03/10 09:15:39;;;;;;;0.00;0.00;;;29.10;40.90;;;;;;4995100;28;20089;-77
2023/03/10 09:18:14;;;;;;;0.00;0.00;;;31.10;39.20;;;;;;4985581;28;20014;-77
2023/03/10 09:20:50;;;;;;;0.30;0.28;;;29.70;39.00;;;;;;4974140;28;20120;-77
2023/03/10 09:23:18;;;;;;;0.00;0.00;;;30.70;39.10;;;;;;4966667;28;20022;-76
2023/03/10 09:25:45;;;;;;;0.20;0.20;;;30.90;38.70;;;;;;4971372;28;20010;-76
2023/03/10 09:28:17;;;;;;;0.00;0.00;;;31.30;38.40;;;;;;4983958;28;20021;-76
2023/03/10 09:30:43;;;;;;;0.00;0.00;;;29.40;38.60;;;;;;4989094;28;20018;-77
2023/03/10 09:33:17;;;;;;;0.00;0.00;;;29.70;39.10;;;;;;4975872;28;20809;-77
2023/03/10 09:35:45;;;;;;;0.00;0.00;;;30.70;39.20;;;;;;4981019;28;20109;-77
2023/03/10 09:38:11;;;;;;;0.10;0.10;;;30.30;39.00;;;;;;4983094;28;20030;-76
2023/03/10 09:40:50;;;;;;;0.00;0.00;;;29.10;39.60;;;;;;4964402;28;21388;-77
2023/03/10 09:43:22;;;;;;;0.00;0.00;;;28.70;40.40;;;;;;4967054;28;20015;-76
2023/03/10 09:45:59;;;;;;;0.00;0.00;;;30.70;39.40;;;;;;4965755;28;20512;-76
2023/03/10 09:48:56;;;;;;;0.00;0.00;;;29.50;38.40;;;;;;4977602;28;20106;-76
2023/03/10 09:51:29;;;;;;;0.00;0.00;;;28.40;40.30;;;;;;4980397;28;20033;-77
2023/03/10 09:54:10;;;;;;;0.30;0.30;;;29.10;40.00;;;;;;4979636;28;20034;-76
2023/03/10 09:56:36;;;;;;;0.00;0.00;;;28.20;40.60;;;;;;4986292;28;20097;-76
2023/03/10 09:59:25;;;;;;;0.00;0.00;;;28.80;40.50;;;;;;4988762;28;20080;-76
2023/03/10 10:01:52;;;;;;;0.52;0.20;;;28.90;40.40;;;;;;4959656;28;20033;-76
2023/03/10 10:04:24;;;;;;;0.00;0.00;;;29.50;40.50;;;;;;4965272;28;20711;-76
2023/03/10 10:07:01;;;;;;;0.00;0.00;;;29.60;40.80;;;;;;4986389;28;20018;-76
2023/03/10 10:09:31;;;;;;;0.00;0.00;;;27.70;40.70;;;;;;4972402;28;20732;-76
2023/03/10 10:12:08;;;;;;;0.05;0.05;;;29.40;41.40;;;;;;4975091;28;20030;-76
2023/03/10 10:14:34;;;;;;;0.00;0.00;;;28.90;41.10;;;;;;5002069;28;20018;-76
2023/03/10 10:17:06;;;;;;;;;;;28.30;41.40;;;;;;4983585;28;20751;-72
2023/03/10 10:19:32;;;;;;;0.00;0.00;;;28.80;42.10;;;;;;4969194;28;19924;-72
2023/03/10 10:22:16;;;;;;;0.00;0.00;;;28.90;41.80;;;;;;4986386;28;20038;-72
2023/03/10 10:25:20;;;;;;;0.47;0.13;;;28.00;41.90;;;;;;4984145;28;20472;-71
2023/03/10 10:27:49;;;;;;;0.00;0.00;;;27.10;42.90;;;;;;4984260;28;20523;-72
2023/03/10 10:30:36;;;;;;;0.57;0.20;;;24.50;45.50;;;;;;4982352;28;20055;-77
2023/03/10 10:33:10;;;;;;;0.00;0.00;;;25.30;45.50;;;;;;4970518;28;20341;-73
2023/03/10 10:35:39;;;;;;;0.10;0.10;;;26.20;44.10;;;;;;4990864;28;20097;-74
2023/03/10 10:38:14;;;;;;;0.00;0.00;;;27.50;43.40;;;;;;4973928;28;20037;-74
2023/03/10 10:41:01;;;;;;;0.00;0.00;;;29.20;42.30;;;;;;4972707;28;20041;-74
2023/03/10 10:43:27;;;;;;;0.10;0.10;;;28.90;42.30;;;;;;4967261;28;20019;-74
2023/03/10 10:46:02;;;;;;;;;;;28.50;42.70;;;;;;4988532;28;20102;-74
2023/03/10 10:48:39;;;;;;;0.30;0.30;;;28.10;43.20;;;;;;4983497;28;19921;-73
2023/03/10 10:51:29;;;;;;;0.05;0.05;;;28.30;43.50;;;;;;4984752;28;20097;-73
2023/03/10 10:53:56;;;;;;;0.00;0.00;;;28.20;43.10;;;;;;4966704;28;20027;-75
2023/03/10 10:56:23;;;;;;;0.00;0.00;;;27.50;43.20;;;;;;4986388;28;20015;-74
2023/03/10 10:59:05;;;;;;;0.00;0.00;;;27.90;44.10;;;;;;4989490;28;20026;-73
2023/03/10 11:02:03;;;;;;;0.00;0.00;;;31.10;42.80;;;;;;4983472;28;20030;-74
2023/03/10 11:04:42;;;;;;;0.00;0.00;;;31.70;40.00;;;;;;4975858;28;20061;-74
2023/03/10 11:07:14;;;;;;;0.00;0.00;;;31.30;39.00;;;;;;4970416;28;20148;-74
2023/03/10 11:09:41;;;;;;;0.00;0.00;;;33.00;38.60;;;;;;4988236;28;20122;-74
2023/03/10 11:12:29;;;;;;;0.00;0.00;;;30.20;37.90;;;;;;4969509;28;20109;-75
2023/03/10 11:15:18;;;;;;;0.00;0.00;;;28.00;39.80;;;;;;4991367;28;20483;-75
2023/03/10 11:17:51;;;;;;;0.00;0.00;;;26.20;40.70;;;;;;4968100;28;20058;-75
2023/03/10 11:20:31;;;;;;;0.00;0.00;;;25.00;42.60;;;;;;4964607;28;20026;-75
2023/03/10 11:23:25;;;;;;;0.00;0.00;;;23.70;44.00;;;;;;4982211;28;20068;-75
2023/03/10 11:25:58;;;;;;;0.00;0.00;;;22.70;45.50;;;;;;4969054;28;20543;-74
2023/03/10 11:28:50;;;;;;;0.10;0.10;;;22.70;46.10;;;;;;4980733;28;20041;-74
2023/03/10 11:31:30;;;;;;;0.00;0.00;;;21.90;46.30;;;;;;4964937;28;20383;-75
2023/03/10 11:34:18;;;;;;;0.00;0.00;;;22.30;47.50;;;;;;4968533;28;20035;-75
2023/03/10 11:36:49;;;;;;;0.00;0.00;;;22.60;47.40;;;;;;4981914;28;20053;-75
2023/03/10 11:39:42;;;;;;;0.00;0.00;;;22.90;46.90;;;;;;4988023;28;20034;-75
2023/03/10 11:42:15;;;;;;;0.00;0.00;;;23.10;47.00;;;;;;4965795;28;20042;-75
2023/03/10 11:45:11;;;;;;;0.00;0.00;;;23.30;46.70;;;;;;4967170;28;20018;-75
2023/03/10 11:47:52;;;;;;;0.20;0.20;;;23.40;46.60;;;;;;4985242;28;20253;-74
2023/03/10 11:50:53;;;;;;;0.00;0.00;;;23.10;46.90;;;;;;4968030;28;20019;-75
2023/03/10 11:53:33;;;;;;;0.00;0.00;;;22.80;47.10;;;;;;4981457;28;20129;-75
2023/03/10 11:56:07;;;;;;;0.00;0.00;;;22.50;47.80;;;;;;4967624;28;20092;-74
2023/03/10 11:58:42;;;;;;;0.00;0.00;;;22.40;48.10;;;;;;4968902;28;20085;-75
2023/03/10 12:01:23;;;;;;;0.00;0.00;;;21.70;48.90;;;;;;4984155;28;20031;-77
2023/03/10 12:03:59;;;;;;;0.00;0.00;;;21.50;49.30;;;;;;4967143;28;20030;-76
2023/03/10 12:06:44;;;;;;;0.00;0.00;;;21.40;49.90;;;;;;4981621;28;20101;-77
2023/03/10 12:09:42;;;;;;;0.00;0.00;;;21.20;50.40;;;;;;4985112;28;20030;-76
2023/03/10 12:12:35;;;;;;;0.00;0.00;;;21.40;50.50;;;;;;4967827;28;20121;-76
2023/03/10 12:15:25;;;;;;;0.00;0.00;;;21.60;50.70;;;;;;4986145;28;20495;-76
2023/03/10 12:17:53;;;;;;;0.00;0.00;;;21.20;50.60;;;;;;4984309;28;20476;-76
2023/03/10 12:20:19;;;;;;;0.00;0.00;;;21.40;50.70;;;;;;4968700;28;20034;-76
2023/03/10 12:22:54;;;;;;;0.00;0.00;;;21.30;50.70;;;;;;4972148;28;20022;-75
2023/03/10 12:25:29;;;;;;;0.00;0.00;;;21.00;51.10;;;;;;4981382;28;20034;-76
2023/03/10 12:28:21;;;;;;;0.00;0.00;;;21.00;51.20;;;;;;4960012;28;20046;-75
2023/03/10 12:30:58;;;;;;;0.00;0.00;;;20.60;51.40;;;;;;4966678;28;20034;-75
2023/03/10 12:33:33;;;;;;;0.00;0.00;;;19.90;53.10;;;;;;4968762;28;20022;-76
2023/03/10 12:36:15;;;;;;;0.00;0.00;;;19.90;53.70;;;;;;4969400;28;20038;-75
2023/03/10 12:38:48;;;;;;;0.00;0.00;;;20.50;52.60;;;;;;4969954;28;20018;-75
2023/03/10 12:41:39;;;;;;;0.00;0.00;;;20.60;52.00;;;;;;4979388;28;20018;-75
2023/03/10 12:44:27;;;;;;;0.00;0.00;;;20.50;51.70;;;;;;4980646;28;20034;-75
2023/03/10 12:47:30;;;;;;;0.05;0.05;;;20.70;51.80;;;;;;4967544;28;20042;-75
2023/03/10 12:50:25;;;;;;;0.00;0.00;;;20.00;52.30;;;;;;4967883;28;20392;-75
2023/03/10 12:53:06;;;;;;;0.00;0.00;;;19.90;52.90;;;;;;4965256;28;20547;-75
2023/03/10 12:55:32;;;;;;;0.00;0.00;;;19.80;53.00;;;;;;4984600;28;20025;-75
2023/03/10 12:58:21;;;;;;;0.00;0.00;;;19.80;53.30;;;;;;4964119;28;20029;-75
2023/03/10 13:00:57;;;;;;;0.00;0.00;;;19.70;53.60;;;;;;4964056;28;20400;-77
2023/03/10 13:03:34;;;;;;;0.00;0.00;;;19.80;53.50;;;;;;4989356;28;20026;-77
2023/03/10 13:06:03;;;;;;;0.00;0.00;;;20.00;53.30;;;;;;4979654;28;20036;-77
2023/03/10 13:08:51;;;;;;;0.00;0.00;;;20.30;52.70;;;;;;4988760;28;20120;-78
2023/03/10 13:11:24;;;;;;;0.00;0.00;;;20.60;52.30;;;;;;4970108;28;20472;-77
2023/03/10 13:14:08;;;;;;;0.00;0.00;;;20.70;52.40;;;;;;4975945;28;20027;-76
2023/03/10 13:16:35;;;;;;;0.00;0.00;;;20.60;52.00;;;;;;4971087;28;20117;-78
2023/03/10 13:19:02;;;;;;;0.00;0.00;;;20.40;52.30;;;;;;4985127;28;20057;-78
2023/03/10 13:21:34;;;;;;;0.00;0.00;;;20.10;52.40;;;;;;4983053;28;20049;-77